sensor_id;sensor_type;location;lat;lon;timestamp;P1;durP1;ratioP1;P2;durP2;ratioP2
15629;SDS011;7914;50.842;0.166;2023-04-24T00:00:01;21.80;;;10.93;;
15629;SDS011;7914;50.842;0.166;2023-04-24T00:02:34;20.45;;;10.30;;
15629;SDS011;7914;50.842;0.166;2023-04-24T00:05:03;24.02;;;10.70;;
15629;SDS011;7914;50.842;0.166;2023-04-24T00:07:32;21.83;;;10.32;;
15629;SDS011;7914;50.842;0.166;2023-04-24T00:09:59;25.05;;;11.48;;
15629;SDS011;7914;50.842;0.166;2023-04-24T00:12:25;27.90;;;11.55;;
15629;SDS011;7914;50.842;0.166;2023-04-24T00:14:51;27.30;;;12.93;;
15629;SDS011;7914;50.842;0.166;2023-04-24T00:17:17;29.40;;;13.10;;
15629;SDS011;7914;50.842;0.166;2023-04-24T00:19:49;26.25;;;12.13;;
15629;SDS011;7914;50.842;0.166;2023-04-24T00:22:26;27.00;;;12.50;;
15629;SDS011;7914;50.842;0.166;2023-04-24T00:24:53;29.55;;;12.18;;
15629;SDS011;7914;50.842;0.166;2023-04-24T00:27:19;25.60;;;12.93;;
15629;SDS011;7914;50.842;0.166;2023-04-24T00:29:45;28.08;;;13.27;;
15629;SDS011;7914;50.842;0.166;2023-04-24T00:32:11;24.38;;;11.02;;
15629;SDS011;7914;50.842;0.166;2023-04-24T00:34:36;27.92;;;13.18;;
15629;SDS011;7914;50.842;0.166;2023-04-24T00:37:02;29.50;;;12.55;;
15629;SDS011;7914;50.842;0.166;2023-04-24T00:39:28;28.50;;;11.57;;
15629;SDS011;7914;50.842;0.166;2023-04-24T00:41:54;27.35;;;12.38;;
15629;SDS011;7914;50.842;0.166;2023-04-24T00:44:20;31.60;;;12.50;;
15629;SDS011;7914;50.842;0.166;2023-04-24T00:46:46;27.85;;;12.23;;
15629;SDS011;7914;50.842;0.166;2023-04-24T00:49:17;27.38;;;12.63;;
15629;SDS011;7914;50.842;0.166;2023-04-24T00:51:43;29.85;;;11.95;;
15629;SDS011;7914;50.842;0.166;2023-04-24T00:54:11;25.10;;;11.43;;
15629;SDS011;7914;50.842;0.166;2023-04-24T00:56:37;28.38;;;11.85;;
15629;SDS011;7914;50.842;0.166;2023-04-24T00:59:03;26.55;;;11.95;;
15629;SDS011;7914;50.842;0.166;2023-04-24T01:01:29;28.27;;;12.00;;
15629;SDS011;7914;50.842;0.166;2023-04-24T01:03:55;25.45;;;11.50;;
15629;SDS011;7914;50.842;0.166;2023-04-24T01:06:22;27.10;;;12.13;;
15629;SDS011;7914;50.842;0.166;2023-04-24T01:08:52;25.10;;;10.75;;
15629;SDS011;7914;50.842;0.166;2023-04-24T01:11:18;26.30;;;11.75;;
15629;SDS011;7914;50.842;0.166;2023-04-24T01:13:44;27.80;;;11.60;;
15629;SDS011;7914;50.842;0.166;2023-04-24T01:16:10;28.00;;;12.10;;
15629;SDS011;7914;50.842;0.166;2023-04-24T01:18:36;25.98;;;12.38;;
15629;SDS011;7914;50.842;0.166;2023-04-24T01:21:03;27.13;;;11.45;;
15629;SDS011;7914;50.842;0.166;2023-04-24T01:23:29;27.15;;;12.38;;
15629;SDS011;7914;50.842;0.166;2023-04-24T01:25:55;27.48;;;11.40;;
15629;SDS011;7914;50.842;0.166;2023-04-24T01:28:21;28.75;;;12.65;;
15629;SDS011;7914;50.842;0.166;2023-04-24T01:30:48;25.73;;;10.77;;
15629;SDS011;7914;50.842;0.166;2023-04-24T01:33:13;31.25;;;12.98;;
15629;SDS011;7914;50.842;0.166;2023-04-24T01:35:39;29.23;;;12.68;;
15629;SDS011;7914;50.842;0.166;2023-04-24T01:38:05;27.63;;;12.73;;
15629;SDS011;7914;50.842;0.166;2023-04-24T01:40:32;24.08;;;11.73;;
15629;SDS011;7914;50.842;0.166;2023-04-24T01:42:58;25.48;;;10.98;;
15629;SDS011;7914;50.842;0.166;2023-04-24T01:45:24;25.10;;;11.93;;
15629;SDS011;7914;50.842;0.166;2023-04-24T01:47:50;22.63;;;11.85;;
15629;SDS011;7914;50.842;0.166;2023-04-24T01:50:16;27.10;;;12.90;;
15629;SDS011;7914;50.842;0.166;2023-04-24T01:52:42;26.77;;;12.13;;
15629;SDS011;7914;50.842;0.166;2023-04-24T01:55:08;26.98;;;12.20;;
15629;SDS011;7914;50.842;0.166;2023-04-24T01:57:34;29.13;;;12.27;;
15629;SDS011;7914;50.842;0.166;2023-04-24T02:00:00;24.83;;;12.32;;
15629;SDS011;7914;50.842;0.166;2023-04-24T02:02:29;30.75;;;12.57;;
15629;SDS011;7914;50.842;0.166;2023-04-24T02:04:55;27.77;;;12.68;;
15629;SDS011;7914;50.842;0.166;2023-04-24T02:07:21;26.67;;;12.20;;
15629;SDS011;7914;50.842;0.166;2023-04-24T02:09:47;28.98;;;12.55;;
15629;SDS011;7914;50.842;0.166;2023-04-24T02:12:13;29.95;;;12.77;;
15629;SDS011;7914;50.842;0.166;2023-04-24T02:14:40;25.98;;;12.30;;
15629;SDS011;7914;50.842;0.166;2023-04-24T02:17:07;28.30;;;11.73;;
15629;SDS011;7914;50.842;0.166;2023-04-24T02:19:33;28.00;;;12.40;;
15629;SDS011;7914;50.842;0.166;2023-04-24T02:21:59;27.58;;;11.00;;
15629;SDS011;7914;50.842;0.166;2023-04-24T02:24:25;30.45;;;11.68;;
15629;SDS011;7914;50.842;0.166;2023-04-24T02:26:50;29.17;;;12.70;;
15629;SDS011;7914;50.842;0.166;2023-04-24T02:29:16;25.65;;;12.02;;
15629;SDS011;7914;50.842;0.166;2023-04-24T02:31:42;26.90;;;12.02;;
15629;SDS011;7914;50.842;0.166;2023-04-24T02:34:08;27.55;;;10.98;;
15629;SDS011;7914;50.842;0.166;2023-04-24T02:36:34;25.23;;;12.13;;
15629;SDS011;7914;50.842;0.166;2023-04-24T02:39:00;26.83;;;11.98;;
15629;SDS011;7914;50.842;0.166;2023-04-24T02:41:26;25.55;;;12.13;;
15629;SDS011;7914;50.842;0.166;2023-04-24T02:43:56;27.15;;;12.43;;
15629;SDS011;7914;50.842;0.166;2023-04-24T02:46:23;23.77;;;12.70;;
15629;SDS011;7914;50.842;0.166;2023-04-24T02:48:48;27.40;;;12.00;;
15629;SDS011;7914;50.842;0.166;2023-04-24T02:51:14;24.90;;;11.52;;
15629;SDS011;7914;50.842;0.166;2023-04-24T02:53:40;28.35;;;12.30;;
15629;SDS011;7914;50.842;0.166;2023-04-24T02:56:05;26.65;;;11.85;;
15629;SDS011;7914;50.842;0.166;2023-04-24T02:58:31;25.30;;;12.55;;
15629;SDS011;7914;50.842;0.166;2023-04-24T03:00:57;30.27;;;12.63;;
15629;SDS011;7914;50.842;0.166;2023-04-24T03:03:23;27.23;;;11.93;;
15629;SDS011;7914;50.842;0.166;2023-04-24T03:05:49;25.52;;;12.57;;
15629;SDS011;7914;50.842;0.166;2023-04-24T03:08:15;25.52;;;11.70;;
15629;SDS011;7914;50.842;0.166;2023-04-24T03:10:41;28.73;;;12.57;;
15629;SDS011;7914;50.842;0.166;2023-04-24T03:13:07;27.85;;;12.30;;
15629;SDS011;7914;50.842;0.166;2023-04-24T03:15:32;29.38;;;12.95;;
15629;SDS011;7914;50.842;0.166;2023-04-24T03:17:58;28.35;;;12.77;;
15629;SDS011;7914;50.842;0.166;2023-04-24T03:20:25;25.15;;;11.70;;
15629;SDS011;7914;50.842;0.166;2023-04-24T03:22:51;26.15;;;14.02;;
15629;SDS011;7914;50.842;0.166;2023-04-24T03:25:16;27.23;;;12.45;;
15629;SDS011;7914;50.842;0.166;2023-04-24T03:27:43;29.10;;;12.48;;
15629;SDS011;7914;50.842;0.166;2023-04-24T03:30:08;28.20;;;13.30;;
15629;SDS011;7914;50.842;0.166;2023-04-24T03:32:34;26.80;;;14.10;;
15629;SDS011;7914;50.842;0.166;2023-04-24T03:35:00;27.75;;;11.88;;
15629;SDS011;7914;50.842;0.166;2023-04-24T03:37:26;28.85;;;12.15;;
15629;SDS011;7914;50.842;0.166;2023-04-24T03:39:51;24.25;;;11.55;;
15629;SDS011;7914;50.842;0.166;2023-04-24T03:42:17;26.52;;;12.50;;
15629;SDS011;7914;50.842;0.166;2023-04-24T03:44:43;27.23;;;12.07;;
15629;SDS011;7914;50.842;0.166;2023-04-24T03:47:09;28.85;;;12.48;;
15629;SDS011;7914;50.842;0.166;2023-04-24T03:49:35;25.52;;;12.15;;
15629;SDS011;7914;50.842;0.166;2023-04-24T03:52:00;28.17;;;12.85;;
15629;SDS011;7914;50.842;0.166;2023-04-24T03:54:26;26.98;;;13.48;;
15629;SDS011;7914;50.842;0.166;2023-04-24T03:56:52;27.85;;;12.45;;
15629;SDS011;7914;50.842;0.166;2023-04-24T03:59:18;24.42;;;12.90;;
15629;SDS011;7914;50.842;0.166;2023-04-24T04:01:44;25.23;;;12.68;;
15629;SDS011;7914;50.842;0.166;2023-04-24T04:04:10;27.20;;;12.10;;
15629;SDS011;7914;50.842;0.166;2023-04-24T04:06:37;24.70;;;11.85;;
15629;SDS011;7914;50.842;0.166;2023-04-24T04:09:03;27.92;;;12.45;;
15629;SDS011;7914;50.842;0.166;2023-04-24T04:11:29;23.65;;;11.10;;
15629;SDS011;7914;50.842;0.166;2023-04-24T04:13:55;24.35;;;11.02;;
15629;SDS011;7914;50.842;0.166;2023-04-24T04:16:22;23.52;;;12.07;;
15629;SDS011;7914;50.842;0.166;2023-04-24T04:18:48;29.15;;;12.70;;
15629;SDS011;7914;50.842;0.166;2023-04-24T04:21:13;24.33;;;12.65;;
15629;SDS011;7914;50.842;0.166;2023-04-24T04:23:39;27.85;;;11.68;;
15629;SDS011;7914;50.842;0.166;2023-04-24T04:26:05;21.45;;;10.82;;
15629;SDS011;7914;50.842;0.166;2023-04-24T04:28:31;28.55;;;11.02;;
15629;SDS011;7914;50.842;0.166;2023-04-24T04:30:57;25.48;;;12.77;;
15629;SDS011;7914;50.842;0.166;2023-04-24T04:33:25;27.42;;;11.85;;
15629;SDS011;7914;50.842;0.166;2023-04-24T04:35:51;27.15;;;11.98;;
15629;SDS011;7914;50.842;0.166;2023-04-24T04:38:18;28.60;;;11.23;;
15629;SDS011;7914;50.842;0.166;2023-04-24T04:40:45;32.45;;;13.35;;
15629;SDS011;7914;50.842;0.166;2023-04-24T04:43:11;25.17;;;11.48;;
15629;SDS011;7914;50.842;0.166;2023-04-24T04:45:38;27.13;;;12.93;;
15629;SDS011;7914;50.842;0.166;2023-04-24T04:48:05;28.48;;;11.95;;
15629;SDS011;7914;50.842;0.166;2023-04-24T04:50:33;25.70;;;12.82;;
15629;SDS011;7914;50.842;0.166;2023-04-24T04:52:58;25.33;;;11.63;;
15629;SDS011;7914;50.842;0.166;2023-04-24T04:55:24;25.58;;;12.77;;
15629;SDS011;7914;50.842;0.166;2023-04-24T04:57:51;24.13;;;10.68;;
15629;SDS011;7914;50.842;0.166;2023-04-24T05:00:17;23.65;;;10.80;;
15629;SDS011;7914;50.842;0.166;2023-04-24T05:02:43;22.58;;;10.52;;
15629;SDS011;7914;50.842;0.166;2023-04-24T05:05:09;23.55;;;10.43;;
15629;SDS011;7914;50.842;0.166;2023-04-24T05:07:35;23.17;;;11.07;;
15629;SDS011;7914;50.842;0.166;2023-04-24T05:10:00;27.67;;;12.23;;
15629;SDS011;7914;50.842;0.166;2023-04-24T05:12:26;24.10;;;10.63;;
15629;SDS011;7914;50.842;0.166;2023-04-24T05:14:52;24.92;;;11.45;;
15629;SDS011;7914;50.842;0.166;2023-04-24T05:17:17;24.27;;;10.80;;
15629;SDS011;7914;50.842;0.166;2023-04-24T05:19:43;24.13;;;11.30;;
15629;SDS011;7914;50.842;0.166;2023-04-24T05:22:09;24.30;;;10.00;;
15629;SDS011;7914;50.842;0.166;2023-04-24T05:24:37;20.67;;;10.57;;
15629;SDS011;7914;50.842;0.166;2023-04-24T05:27:03;22.98;;;11.25;;
15629;SDS011;7914;50.842;0.166;2023-04-24T05:29:32;21.33;;;11.45;;
15629;SDS011;7914;50.842;0.166;2023-04-24T05:31:58;22.15;;;11.15;;
15629;SDS011;7914;50.842;0.166;2023-04-24T05:34:25;23.58;;;11.73;;
15629;SDS011;7914;50.842;0.166;2023-04-24T05:36:51;25.25;;;10.65;;
15629;SDS011;7914;50.842;0.166;2023-04-24T05:39:17;20.70;;;10.43;;
15629;SDS011;7914;50.842;0.166;2023-04-24T05:41:43;21.65;;;10.48;;
15629;SDS011;7914;50.842;0.166;2023-04-24T05:44:09;20.35;;;10.63;;
15629;SDS011;7914;50.842;0.166;2023-04-24T05:46:34;18.88;;;9.27;;
15629;SDS011;7914;50.842;0.166;2023-04-24T05:49:00;19.95;;;10.00;;
15629;SDS011;7914;50.842;0.166;2023-04-24T05:51:27;20.27;;;8.75;;
15629;SDS011;7914;50.842;0.166;2023-04-24T05:53:53;20.88;;;9.13;;
15629;SDS011;7914;50.842;0.166;2023-04-24T05:56:18;18.88;;;9.10;;
15629;SDS011;7914;50.842;0.166;2023-04-24T05:58:45;19.00;;;9.57;;
15629;SDS011;7914;50.842;0.166;2023-04-24T06:01:11;18.45;;;9.05;;
15629;SDS011;7914;50.842;0.166;2023-04-24T06:03:38;15.02;;;8.32;;
15629;SDS011;7914;50.842;0.166;2023-04-24T06:06:05;17.90;;;9.13;;
15629;SDS011;7914;50.842;0.166;2023-04-24T06:08:33;17.83;;;8.57;;
15629;SDS011;7914;50.842;0.166;2023-04-24T06:10:59;16.25;;;8.13;;
15629;SDS011;7914;50.842;0.166;2023-04-24T06:13:25;17.45;;;7.68;;
15629;SDS011;7914;50.842;0.166;2023-04-24T06:15:50;19.25;;;9.10;;
15629;SDS011;7914;50.842;0.166;2023-04-24T06:18:18;17.52;;;8.35;;
15629;SDS011;7914;50.842;0.166;2023-04-24T06:20:44;16.52;;;8.52;;
15629;SDS011;7914;50.842;0.166;2023-04-24T06:23:10;15.75;;;8.35;;
15629;SDS011;7914;50.842;0.166;2023-04-24T06:25:36;18.73;;;9.20;;
15629;SDS011;7914;50.842;0.166;2023-04-24T06:28:03;14.75;;;7.43;;
15629;SDS011;7914;50.842;0.166;2023-04-24T06:30:29;16.67;;;7.93;;
15629;SDS011;7914;50.842;0.166;2023-04-24T06:32:54;17.67;;;9.55;;
15629;SDS011;7914;50.842;0.166;2023-04-24T06:35:20;14.77;;;8.32;;
15629;SDS011;7914;50.842;0.166;2023-04-24T06:37:46;16.40;;;8.60;;
15629;SDS011;7914;50.842;0.166;2023-04-24T06:40:11;14.88;;;7.63;;
15629;SDS011;7914;50.842;0.166;2023-04-24T06:42:37;15.02;;;7.60;;
15629;SDS011;7914;50.842;0.166;2023-04-24T06:45:03;15.32;;;7.88;;
15629;SDS011;7914;50.842;0.166;2023-04-24T06:47:30;14.30;;;7.60;;
15629;SDS011;7914;50.842;0.166;2023-04-24T06:49:56;15.45;;;7.50;;
15629;SDS011;7914;50.842;0.166;2023-04-24T06:52:22;17.27;;;7.68;;
15629;SDS011;7914;50.842;0.166;2023-04-24T06:54:47;18.23;;;7.95;;
15629;SDS011;7914;50.842;0.166;2023-04-24T06:57:13;13.77;;;8.02;;
15629;SDS011;7914;50.842;0.166;2023-04-24T06:59:41;18.23;;;8.60;;
15629;SDS011;7914;50.842;0.166;2023-04-24T07:02:07;16.10;;;8.10;;
15629;SDS011;7914;50.842;0.166;2023-04-24T07:04:32;15.70;;;8.20;;
15629;SDS011;7914;50.842;0.166;2023-04-24T07:06:58;16.40;;;8.27;;
15629;SDS011;7914;50.842;0.166;2023-04-24T07:09:24;15.07;;;7.90;;
15629;SDS011;7914;50.842;0.166;2023-04-24T07:11:53;17.02;;;7.78;;
15629;SDS011;7914;50.842;0.166;2023-04-24T07:16:45;13.63;;;7.63;;
15629;SDS011;7914;50.842;0.166;2023-04-24T07:19:11;16.33;;;7.82;;
15629;SDS011;7914;50.842;0.166;2023-04-24T07:21:37;15.07;;;8.48;;
15629;SDS011;7914;50.842;0.166;2023-04-24T07:24:03;15.82;;;7.55;;
15629;SDS011;7914;50.842;0.166;2023-04-24T07:26:29;13.93;;;7.43;;
15629;SDS011;7914;50.842;0.166;2023-04-24T07:28:55;15.75;;;9.63;;
15629;SDS011;7914;50.842;0.166;2023-04-24T07:31:21;16.35;;;8.60;;
15629;SDS011;7914;50.842;0.166;2023-04-24T07:33:47;13.95;;;8.25;;
15629;SDS011;7914;50.842;0.166;2023-04-24T07:36:13;15.30;;;8.60;;
15629;SDS011;7914;50.842;0.166;2023-04-24T07:38:44;13.85;;;7.65;;
15629;SDS011;7914;50.842;0.166;2023-04-24T07:41:10;14.98;;;7.82;;
15629;SDS011;7914;50.842;0.166;2023-04-24T07:43:37;17.20;;;7.80;;
15629;SDS011;7914;50.842;0.166;2023-04-24T07:46:03;16.88;;;8.70;;
15629;SDS011;7914;50.842;0.166;2023-04-24T07:48:29;18.38;;;8.65;;
15629;SDS011;7914;50.842;0.166;2023-04-24T07:50:54;17.42;;;7.88;;
15629;SDS011;7914;50.842;0.166;2023-04-24T07:53:20;19.88;;;8.35;;
15629;SDS011;7914;50.842;0.166;2023-04-24T07:55:46;15.63;;;7.40;;
15629;SDS011;7914;50.842;0.166;2023-04-24T07:58:11;15.65;;;7.90;;
15629;SDS011;7914;50.842;0.166;2023-04-24T08:00:37;17.25;;;8.48;;
15629;SDS011;7914;50.842;0.166;2023-04-24T08:03:03;14.40;;;8.32;;
15629;SDS011;7914;50.842;0.166;2023-04-24T08:05:29;21.50;;;7.93;;
15629;SDS011;7914;50.842;0.166;2023-04-24T08:07:55;13.52;;;8.30;;
15629;SDS011;7914;50.842;0.166;2023-04-24T08:10:24;17.15;;;8.68;;
15629;SDS011;7914;50.842;0.166;2023-04-24T08:12:50;15.65;;;7.55;;
15629;SDS011;7914;50.842;0.166;2023-04-24T08:15:15;13.18;;;7.35;;
15629;SDS011;7914;50.842;0.166;2023-04-24T08:17:41;14.68;;;7.15;;
15629;SDS011;7914;50.842;0.166;2023-04-24T08:20:08;12.98;;;7.20;;
15629;SDS011;7914;50.842;0.166;2023-04-24T08:22:38;13.70;;;6.75;;
15629;SDS011;7914;50.842;0.166;2023-04-24T20:37:44;7.10;;;3.20;;
15629;SDS011;7914;50.842;0.166;2023-04-24T20:40:10;7.95;;;2.90;;
15629;SDS011;7914;50.842;0.166;2023-04-24T20:42:38;8.05;;;3.38;;
15629;SDS011;7914;50.842;0.166;2023-04-24T20:45:04;6.53;;;2.63;;
15629;SDS011;7914;50.842;0.166;2023-04-24T20:47:30;7.70;;;3.22;;
15629;SDS011;7914;50.842;0.166;2023-04-24T20:49:56;5.85;;;2.95;;
15629;SDS011;7914;50.842;0.166;2023-04-24T20:52:22;7.43;;;3.45;;
15629;SDS011;7914;50.842;0.166;2023-04-24T20:54:47;7.95;;;4.30;;
15629;SDS011;7914;50.842;0.166;2023-04-24T20:57:13;7.65;;;2.92;;
15629;SDS011;7914;50.842;0.166;2023-04-24T20:59:40;7.20;;;2.63;;
15629;SDS011;7914;50.842;0.166;2023-04-24T21:02:05;6.80;;;2.85;;
15629;SDS011;7914;50.842;0.166;2023-04-24T21:04:31;6.97;;;2.70;;
15629;SDS011;7914;50.842;0.166;2023-04-24T21:06:59;7.22;;;3.00;;
15629;SDS011;7914;50.842;0.166;2023-04-24T21:09:26;10.70;;;2.60;;
15629;SDS011;7914;50.842;0.166;2023-04-24T21:11:51;7.97;;;2.63;;
15629;SDS011;7914;50.842;0.166;2023-04-24T21:14:17;7.15;;;2.75;;
15629;SDS011;7914;50.842;0.166;2023-04-24T21:16:43;9.38;;;2.78;;
15629;SDS011;7914;50.842;0.166;2023-04-24T21:19:08;9.43;;;2.90;;
15629;SDS011;7914;50.842;0.166;2023-04-24T21:21:34;13.50;;;2.40;;
15629;SDS011;7914;50.842;0.166;2023-04-24T21:24:00;6.22;;;2.33;;
15629;SDS011;7914;50.842;0.166;2023-04-24T21:26:28;9.82;;;3.28;;
15629;SDS011;7914;50.842;0.166;2023-04-24T21:28:54;9.52;;;3.15;;
15629;SDS011;7914;50.842;0.166;2023-04-24T21:31:19;10.23;;;2.58;;
15629;SDS011;7914;50.842;0.166;2023-04-24T21:33:45;9.80;;;3.53;;
15629;SDS011;7914;50.842;0.166;2023-04-24T21:36:11;10.30;;;3.45;;
15629;SDS011;7914;50.842;0.166;2023-04-24T21:38:36;14.27;;;4.57;;
15629;SDS011;7914;50.842;0.166;2023-04-24T21:41:04;6.82;;;2.55;;
15629;SDS011;7914;50.842;0.166;2023-04-24T21:43:30;9.70;;;3.10;;
15629;SDS011;7914;50.842;0.166;2023-04-24T21:45:56;7.95;;;3.30;;
15629;SDS011;7914;50.842;0.166;2023-04-24T21:48:21;10.68;;;3.97;;
15629;SDS011;7914;50.842;0.166;2023-04-24T21:50:47;8.95;;;3.88;;
15629;SDS011;7914;50.842;0.166;2023-04-24T21:53:13;10.90;;;4.05;;
15629;SDS011;7914;50.842;0.166;2023-04-24T21:55:39;10.23;;;4.22;;
15629;SDS011;7914;50.842;0.166;2023-04-24T21:58:05;9.70;;;3.78;;
15629;SDS011;7914;50.842;0.166;2023-04-24T22:00:31;9.52;;;3.28;;
15629;SDS011;7914;50.842;0.166;2023-04-24T22:02:57;11.43;;;4.20;;
15629;SDS011;7914;50.842;0.166;2023-04-24T22:05:22;12.23;;;3.22;;
15629;SDS011;7914;50.842;0.166;2023-04-24T22:07:48;10.10;;;3.72;;
15629;SDS011;7914;50.842;0.166;2023-04-24T22:10:15;11.60;;;3.58;;
15629;SDS011;7914;50.842;0.166;2023-04-24T22:12:41;10.40;;;3.22;;
15629;SDS011;7914;50.842;0.166;2023-04-24T22:15:08;10.85;;;3.92;;
15629;SDS011;7914;50.842;0.166;2023-04-24T22:17:35;8.63;;;3.28;;
15629;SDS011;7914;50.842;0.166;2023-04-24T22:20:04;11.65;;;3.53;;
15629;SDS011;7914;50.842;0.166;2023-04-24T22:22:32;7.82;;;3.08;;
15629;SDS011;7914;50.842;0.166;2023-04-24T22:24:58;10.23;;;4.03;;
15629;SDS011;7914;50.842;0.166;2023-04-24T22:27:24;12.25;;;2.72;;
15629;SDS011;7914;50.842;0.166;2023-04-24T22:29:50;13.70;;;4.15;;
15629;SDS011;7914;50.842;0.166;2023-04-24T22:32:16;16.48;;;4.05;;
15629;SDS011;7914;50.842;0.166;2023-04-24T22:34:41;15.25;;;4.13;;
15629;SDS011;7914;50.842;0.166;2023-04-24T22:37:08;22.48;;;4.43;;
15629;SDS011;7914;50.842;0.166;2023-04-24T22:39:34;8.32;;;3.30;;
15629;SDS011;7914;50.842;0.166;2023-04-24T22:42:00;11.85;;;4.05;;
15629;SDS011;7914;50.842;0.166;2023-04-24T22:44:26;13.60;;;3.90;;
15629;SDS011;7914;50.842;0.166;2023-04-24T22:46:52;13.55;;;3.83;;
15629;SDS011;7914;50.842;0.166;2023-04-24T22:49:18;10.98;;;3.53;;
15629;SDS011;7914;50.842;0.166;2023-04-24T22:51:45;12.10;;;3.92;;
15629;SDS011;7914;50.842;0.166;2023-04-24T22:54:12;16.42;;;4.97;;
15629;SDS011;7914;50.842;0.166;2023-04-24T22:56:38;11.45;;;2.92;;
15629;SDS011;7914;50.842;0.166;2023-04-24T22:59:04;11.70;;;4.93;;
15629;SDS011;7914;50.842;0.166;2023-04-24T23:01:30;10.93;;;3.35;;
15629;SDS011;7914;50.842;0.166;2023-04-24T23:03:56;14.27;;;4.00;;
15629;SDS011;7914;50.842;0.166;2023-04-24T23:06:22;14.02;;;3.95;;
15629;SDS011;7914;50.842;0.166;2023-04-24T23:08:47;13.95;;;4.00;;
15629;SDS011;7914;50.842;0.166;2023-04-24T23:11:13;12.50;;;5.13;;
15629;SDS011;7914;50.842;0.166;2023-04-24T23:13:39;12.05;;;4.03;;
15629;SDS011;7914;50.842;0.166;2023-04-24T23:16:05;14.35;;;4.55;;
15629;SDS011;7914;50.842;0.166;2023-04-24T23:18:31;12.25;;;3.72;;
15629;SDS011;7914;50.842;0.166;2023-04-24T23:20:57;14.38;;;4.88;;
15629;SDS011;7914;50.842;0.166;2023-04-24T23:23:22;13.95;;;4.05;;
15629;SDS011;7914;50.842;0.166;2023-04-24T23:25:48;12.32;;;4.10;;
15629;SDS011;7914;50.842;0.166;2023-04-24T23:28:14;13.35;;;4.40;;
15629;SDS011;7914;50.842;0.166;2023-04-24T23:30:40;12.18;;;3.65;;
15629;SDS011;7914;50.842;0.166;2023-04-24T23:33:05;14.43;;;3.58;;
15629;SDS011;7914;50.842;0.166;2023-04-24T23:35:31;14.27;;;3.97;;
15629;SDS011;7914;50.842;0.166;2023-04-24T23:37:57;10.23;;;3.42;;
15629;SDS011;7914;50.842;0.166;2023-04-24T23:40:22;12.20;;;4.07;;
15629;SDS011;7914;50.842;0.166;2023-04-24T23:42:48;13.68;;;4.03;;
15629;SDS011;7914;50.842;0.166;2023-04-24T23:45:14;11.70;;;3.40;;
15629;SDS011;7914;50.842;0.166;2023-04-24T23:47:40;11.93;;;3.75;;
15629;SDS011;7914;50.842;0.166;2023-04-24T23:50:06;13.02;;;4.20;;
15629;SDS011;7914;50.842;0.166;2023-04-24T23:52:32;14.95;;;4.55;;
15629;SDS011;7914;50.842;0.166;2023-04-24T23:54:59;12.35;;;4.65;;
15629;SDS011;7914;50.842;0.166;2023-04-24T23:57:26;12.05;;;4.32;;
15629;SDS011;7914;50.842;0.166;2023-04-24T23:59:53;12.43;;;4.57;;
